Terminal Aerodrome Forecast
Issued by NWS

Home | Current Version | Previous Version | Graphics & Text | Print | Product List | Glossary On
Versions: 1 2 3 4 5 6 7 8 9 10 11 12 13 14 15 16 17
145
FTUS43 KTOP 212001 AAA
TAFFOE
TAF AMD
KFOE 212001Z 2120/2218 12010KT P6SM SCT045
     FM212200 11010KT P6SM VCSH BKN045
     FM220200 12005KT P6SM BKN050
     FM221600 15012G17KT P6SM SCT050=

USA.gov is the U.S. government's official web portal to all federal, state and local government web resources and services.